sensor_id;sensor_type;location;lat;lon;timestamp;P1;durP1;ratioP1;P2;durP2;ratioP2
12906;SDS011;6521;50.498;8.474;2023-04-03T00:01:54;2.97;;;1.63;;
12906;SDS011;6521;50.498;8.474;2023-04-03T00:04:25;3.10;;;1.80;;
12906;SDS011;6521;50.498;8.474;2023-04-03T00:06:56;1.67;;;1.57;;
12906;SDS011;6521;50.498;8.474;2023-04-03T00:09:26;2.93;;;1.60;;
12906;SDS011;6521;50.498;8.474;2023-04-03T00:11:57;1.83;;;1.33;;
12906;SDS011;6521;50.498;8.474;2023-04-03T00:14:28;2.80;;;1.80;;
12906;SDS011;6521;50.498;8.474;2023-04-03T00:16:58;3.10;;;1.73;;
12906;SDS011;6521;50.498;8.474;2023-04-03T00:19:29;2.80;;;1.73;;
12906;SDS011;6521;50.498;8.474;2023-04-03T00:22:00;6.23;;;2.13;;
12906;SDS011;6521;50.498;8.474;2023-04-03T00:24:31;4.20;;;1.50;;
12906;SDS011;6521;50.498;8.474;2023-04-03T00:27:01;2.27;;;1.60;;
12906;SDS011;6521;50.498;8.474;2023-04-03T00:29:32;5.23;;;1.70;;
12906;SDS011;6521;50.498;8.474;2023-04-03T00:32:03;1.67;;;1.57;;
12906;SDS011;6521;50.498;8.474;2023-04-03T00:34:34;6.03;;;1.97;;
12906;SDS011;6521;50.498;8.474;2023-04-03T00:37:04;1.73;;;1.63;;
12906;SDS011;6521;50.498;8.474;2023-04-03T00:39:35;2.43;;;1.70;;
12906;SDS011;6521;50.498;8.474;2023-04-03T00:42:06;7.93;;;1.53;;
12906;SDS011;6521;50.498;8.474;2023-04-03T00:47:12;3.23;;;1.73;;
12906;SDS011;6521;50.498;8.474;2023-04-03T00:49:45;1.43;;;1.27;;
12906;SDS011;6521;50.498;8.474;2023-04-03T00:52:17;1.50;;;1.40;;
12906;SDS011;6521;50.498;8.474;2023-04-03T00:54:52;5.23;;;1.60;;
12906;SDS011;6521;50.498;8.474;2023-04-03T00:57:27;1.80;;;1.20;;
12906;SDS011;6521;50.498;8.474;2023-04-03T01:00:02;2.17;;;1.50;;
12906;SDS011;6521;50.498;8.474;2023-04-03T01:02:37;2.80;;;1.60;;
12906;SDS011;6521;50.498;8.474;2023-04-03T01:05:11;1.73;;;1.37;;
12906;SDS011;6521;50.498;8.474;2023-04-03T01:07:43;4.83;;;1.80;;
12906;SDS011;6521;50.498;8.474;2023-04-03T01:10:14;3.33;;;1.50;;
12906;SDS011;6521;50.498;8.474;2023-04-03T01:12:47;2.63;;;1.40;;
12906;SDS011;6521;50.498;8.474;2023-04-03T01:15:22;4.43;;;1.87;;
12906;SDS011;6521;50.498;8.474;2023-04-03T01:17:55;1.60;;;1.20;;
12906;SDS011;6521;50.498;8.474;2023-04-03T01:25:45;1.77;;;1.30;;
12906;SDS011;6521;50.498;8.474;2023-04-03T01:28:22;4.00;;;1.90;;
12906;SDS011;6521;50.498;8.474;2023-04-03T01:33:44;3.37;;;1.53;;
12906;SDS011;6521;50.498;8.474;2023-04-03T01:36:17;2.13;;;1.70;;
12906;SDS011;6521;50.498;8.474;2023-04-03T01:38:51;2.73;;;1.83;;
12906;SDS011;6521;50.498;8.474;2023-04-03T01:41:23;2.90;;;1.70;;
12906;SDS011;6521;50.498;8.474;2023-04-03T01:43:56;2.50;;;1.47;;
12906;SDS011;6521;50.498;8.474;2023-04-03T01:46:27;7.10;;;1.87;;
12906;SDS011;6521;50.498;8.474;2023-04-03T01:48:57;3.63;;;1.90;;
12906;SDS011;6521;50.498;8.474;2023-04-03T01:51:28;5.20;;;1.60;;
12906;SDS011;6521;50.498;8.474;2023-04-03T01:53:59;2.73;;;1.30;;
12906;SDS011;6521;50.498;8.474;2023-04-03T01:56:30;2.17;;;1.50;;
12906;SDS011;6521;50.498;8.474;2023-04-03T01:59:01;3.70;;;1.47;;
12906;SDS011;6521;50.498;8.474;2023-04-03T02:01:32;3.93;;;1.63;;
12906;SDS011;6521;50.498;8.474;2023-04-03T02:04:03;3.00;;;1.60;;
12906;SDS011;6521;50.498;8.474;2023-04-03T02:06:34;2.10;;;1.30;;
12906;SDS011;6521;50.498;8.474;2023-04-03T02:09:05;2.10;;;1.20;;
12906;SDS011;6521;50.498;8.474;2023-04-03T02:11:36;1.57;;;1.33;;
12906;SDS011;6521;50.498;8.474;2023-04-03T02:14:06;3.57;;;1.83;;
12906;SDS011;6521;50.498;8.474;2023-04-03T02:16:38;3.80;;;1.67;;
12906;SDS011;6521;50.498;8.474;2023-04-03T02:19:09;3.90;;;1.40;;
12906;SDS011;6521;50.498;8.474;2023-04-03T02:21:39;3.13;;;1.30;;
12906;SDS011;6521;50.498;8.474;2023-04-03T02:24:10;3.90;;;1.40;;
12906;SDS011;6521;50.498;8.474;2023-04-03T02:26:41;2.73;;;1.53;;
12906;SDS011;6521;50.498;8.474;2023-04-03T02:29:12;3.80;;;1.50;;
12906;SDS011;6521;50.498;8.474;2023-04-03T02:31:42;2.40;;;1.20;;
12906;SDS011;6521;50.498;8.474;2023-04-03T02:34:13;2.07;;;1.30;;
12906;SDS011;6521;50.498;8.474;2023-04-03T02:36:45;3.37;;;1.47;;
12906;SDS011;6521;50.498;8.474;2023-04-03T02:39:17;4.03;;;1.43;;
12906;SDS011;6521;50.498;8.474;2023-04-03T02:41:48;4.07;;;1.20;;
12906;SDS011;6521;50.498;8.474;2023-04-03T02:44:25;1.43;;;1.27;;
12906;SDS011;6521;50.498;8.474;2023-04-03T02:46:57;2.40;;;1.10;;
12906;SDS011;6521;50.498;8.474;2023-04-03T02:49:27;2.40;;;1.20;;
12906;SDS011;6521;50.498;8.474;2023-04-03T02:51:58;3.90;;;1.30;;
12906;SDS011;6521;50.498;8.474;2023-04-03T02:54:29;4.00;;;2.03;;
12906;SDS011;6521;50.498;8.474;2023-04-03T02:57:06;4.17;;;1.60;;
12906;SDS011;6521;50.498;8.474;2023-04-03T02:59:39;3.20;;;1.40;;
12906;SDS011;6521;50.498;8.474;2023-04-03T03:02:11;3.37;;;1.40;;
12906;SDS011;6521;50.498;8.474;2023-04-03T03:04:42;3.57;;;1.43;;
12906;SDS011;6521;50.498;8.474;2023-04-03T03:07:13;3.43;;;1.63;;
12906;SDS011;6521;50.498;8.474;2023-04-03T03:09:43;2.53;;;1.10;;
12906;SDS011;6521;50.498;8.474;2023-04-03T03:12:14;3.10;;;1.50;;
12906;SDS011;6521;50.498;8.474;2023-04-03T03:14:45;3.43;;;1.40;;
12906;SDS011;6521;50.498;8.474;2023-04-03T03:17:16;4.20;;;1.30;;
12906;SDS011;6521;50.498;8.474;2023-04-03T03:19:47;2.10;;;1.30;;
12906;SDS011;6521;50.498;8.474;2023-04-03T03:22:18;4.03;;;1.50;;
12906;SDS011;6521;50.498;8.474;2023-04-03T03:24:49;3.10;;;1.43;;
12906;SDS011;6521;50.498;8.474;2023-04-03T03:27:20;3.10;;;1.40;;
12906;SDS011;6521;50.498;8.474;2023-04-03T03:29:51;3.73;;;1.70;;
12906;SDS011;6521;50.498;8.474;2023-04-03T03:32:21;2.93;;;1.63;;
12906;SDS011;6521;50.498;8.474;2023-04-03T03:34:52;4.23;;;1.60;;
12906;SDS011;6521;50.498;8.474;2023-04-03T03:37:24;3.93;;;1.40;;
12906;SDS011;6521;50.498;8.474;2023-04-03T03:39:55;4.13;;;1.37;;
12906;SDS011;6521;50.498;8.474;2023-04-03T03:42:26;3.10;;;1.30;;
12906;SDS011;6521;50.498;8.474;2023-04-03T03:44:56;1.60;;;1.10;;
12906;SDS011;6521;50.498;8.474;2023-04-03T03:47:28;1.90;;;1.50;;
12906;SDS011;6521;50.498;8.474;2023-04-03T03:50:00;5.20;;;1.50;;
12906;SDS011;6521;50.498;8.474;2023-04-03T03:52:31;3.90;;;1.50;;
12906;SDS011;6521;50.498;8.474;2023-04-03T03:55:02;3.60;;;1.53;;
12906;SDS011;6521;50.498;8.474;2023-04-03T03:57:33;3.30;;;1.63;;
12906;SDS011;6521;50.498;8.474;2023-04-03T04:00:04;6.13;;;1.60;;
12906;SDS011;6521;50.498;8.474;2023-04-03T04:02:45;8.67;;;1.90;;
12906;SDS011;6521;50.498;8.474;2023-04-03T04:05:20;3.80;;;1.60;;
12906;SDS011;6521;50.498;8.474;2023-04-03T04:07:52;5.47;;;1.60;;
12906;SDS011;6521;50.498;8.474;2023-04-03T04:10:23;7.53;;;1.80;;
12906;SDS011;6521;50.498;8.474;2023-04-03T04:12:54;3.07;;;1.47;;
12906;SDS011;6521;50.498;8.474;2023-04-03T04:15:28;5.43;;;1.87;;
12906;SDS011;6521;50.498;8.474;2023-04-03T04:18:00;7.57;;;1.90;;
12906;SDS011;6521;50.498;8.474;2023-04-03T04:20:31;2.33;;;1.40;;
12906;SDS011;6521;50.498;8.474;2023-04-03T04:23:02;4.63;;;1.80;;
12906;SDS011;6521;50.498;8.474;2023-04-03T04:25:35;2.67;;;1.53;;
12906;SDS011;6521;50.498;8.474;2023-04-03T04:28:06;4.03;;;1.80;;
12906;SDS011;6521;50.498;8.474;2023-04-03T04:30:37;4.33;;;1.53;;
12906;SDS011;6521;50.498;8.474;2023-04-03T04:33:08;7.03;;;2.00;;
12906;SDS011;6521;50.498;8.474;2023-04-03T04:35:41;7.37;;;2.00;;
12906;SDS011;6521;50.498;8.474;2023-04-03T04:38:12;9.40;;;1.97;;
12906;SDS011;6521;50.498;8.474;2023-04-03T04:40:43;5.20;;;1.83;;
12906;SDS011;6521;50.498;8.474;2023-04-03T04:43:14;12.13;;;1.87;;
12906;SDS011;6521;50.498;8.474;2023-04-03T04:45:46;2.63;;;1.60;;
12906;SDS011;6521;50.498;8.474;2023-04-03T04:48:18;4.27;;;1.47;;
12906;SDS011;6521;50.498;8.474;2023-04-03T04:50:49;6.63;;;2.00;;
12906;SDS011;6521;50.498;8.474;2023-04-03T04:53:20;5.53;;;1.60;;
12906;SDS011;6521;50.498;8.474;2023-04-03T04:55:51;4.00;;;1.40;;
12906;SDS011;6521;50.498;8.474;2023-04-03T04:58:23;7.70;;;1.90;;
12906;SDS011;6521;50.498;8.474;2023-04-03T05:01:02;11.30;;;1.83;;
12906;SDS011;6521;50.498;8.474;2023-04-03T05:03:36;4.33;;;1.73;;
12906;SDS011;6521;50.498;8.474;2023-04-03T05:06:08;2.37;;;1.40;;
12906;SDS011;6521;50.498;8.474;2023-04-03T05:08:40;6.40;;;1.63;;
12906;SDS011;6521;50.498;8.474;2023-04-03T05:11:12;5.87;;;1.97;;
12906;SDS011;6521;50.498;8.474;2023-04-03T05:13:44;9.17;;;1.93;;
12906;SDS011;6521;50.498;8.474;2023-04-03T05:16:15;8.63;;;2.03;;
12906;SDS011;6521;50.498;8.474;2023-04-03T05:18:46;3.40;;;2.13;;
12906;SDS011;6521;50.498;8.474;2023-04-03T05:21:22;3.90;;;1.80;;
12906;SDS011;6521;50.498;8.474;2023-04-03T05:23:56;3.63;;;1.93;;
12906;SDS011;6521;50.498;8.474;2023-04-03T05:26:27;3.93;;;2.30;;
12906;SDS011;6521;50.498;8.474;2023-04-03T05:28:57;5.43;;;2.07;;
12906;SDS011;6521;50.498;8.474;2023-04-03T05:31:29;5.73;;;1.83;;
12906;SDS011;6521;50.498;8.474;2023-04-03T05:34:01;4.17;;;1.93;;
12906;SDS011;6521;50.498;8.474;2023-04-03T05:36:34;5.07;;;2.00;;
12906;SDS011;6521;50.498;8.474;2023-04-03T05:39:09;3.30;;;2.40;;
12906;SDS011;6521;50.498;8.474;2023-04-03T05:41:43;2.97;;;1.60;;
12906;SDS011;6521;50.498;8.474;2023-04-03T05:44:14;4.13;;;1.83;;
12906;SDS011;6521;50.498;8.474;2023-04-03T05:46:47;3.43;;;1.83;;
12906;SDS011;6521;50.498;8.474;2023-04-03T05:49:18;5.57;;;2.23;;
12906;SDS011;6521;50.498;8.474;2023-04-03T05:51:49;4.57;;;1.73;;
12906;SDS011;6521;50.498;8.474;2023-04-03T05:54:28;5.07;;;2.13;;
12906;SDS011;6521;50.498;8.474;2023-04-03T05:57:16;7.83;;;2.00;;
12906;SDS011;6521;50.498;8.474;2023-04-03T05:59:48;4.93;;;2.10;;
12906;SDS011;6521;50.498;8.474;2023-04-03T06:02:20;7.17;;;2.23;;
12906;SDS011;6521;50.498;8.474;2023-04-03T06:04:52;4.83;;;1.80;;
12906;SDS011;6521;50.498;8.474;2023-04-03T06:07:24;4.07;;;1.97;;
12906;SDS011;6521;50.498;8.474;2023-04-03T06:09:58;4.87;;;1.80;;
12906;SDS011;6521;50.498;8.474;2023-04-03T06:12:29;6.30;;;1.87;;
12906;SDS011;6521;50.498;8.474;2023-04-03T06:15:00;3.00;;;1.83;;
12906;SDS011;6521;50.498;8.474;2023-04-03T06:17:32;6.70;;;1.97;;
12906;SDS011;6521;50.498;8.474;2023-04-03T06:20:03;5.30;;;1.80;;
12906;SDS011;6521;50.498;8.474;2023-04-03T06:22:35;5.40;;;2.10;;
12906;SDS011;6521;50.498;8.474;2023-04-03T06:25:06;5.53;;;1.90;;
12906;SDS011;6521;50.498;8.474;2023-04-03T06:27:38;4.10;;;1.83;;
12906;SDS011;6521;50.498;8.474;2023-04-03T06:30:09;2.93;;;1.70;;
12906;SDS011;6521;50.498;8.474;2023-04-03T06:32:41;5.17;;;2.00;;
12906;SDS011;6521;50.498;8.474;2023-04-03T06:35:13;6.07;;;1.93;;
12906;SDS011;6521;50.498;8.474;2023-04-03T06:37:43;3.47;;;2.10;;
12906;SDS011;6521;50.498;8.474;2023-04-03T06:40:19;6.83;;;2.20;;
12906;SDS011;6521;50.498;8.474;2023-04-03T06:42:52;5.30;;;2.00;;
12906;SDS011;6521;50.498;8.474;2023-04-03T06:45:24;7.77;;;2.10;;
12906;SDS011;6521;50.498;8.474;2023-04-03T06:47:55;6.47;;;3.47;;
12906;SDS011;6521;50.498;8.474;2023-04-03T06:50:26;4.90;;;2.30;;
12906;SDS011;6521;50.498;8.474;2023-04-03T06:52:57;5.83;;;2.30;;
12906;SDS011;6521;50.498;8.474;2023-04-03T06:55:28;6.93;;;2.47;;
12906;SDS011;6521;50.498;8.474;2023-04-03T06:57:58;7.67;;;2.80;;
12906;SDS011;6521;50.498;8.474;2023-04-03T07:00:29;4.33;;;2.43;;
12906;SDS011;6521;50.498;8.474;2023-04-03T07:03:01;6.50;;;2.70;;
12906;SDS011;6521;50.498;8.474;2023-04-03T07:05:32;5.97;;;2.73;;
12906;SDS011;6521;50.498;8.474;2023-04-03T07:08:03;5.70;;;2.27;;
12906;SDS011;6521;50.498;8.474;2023-04-03T07:10:34;5.07;;;2.17;;
12906;SDS011;6521;50.498;8.474;2023-04-03T07:13:05;4.87;;;2.50;;
12906;SDS011;6521;50.498;8.474;2023-04-03T07:15:35;5.30;;;2.37;;
12906;SDS011;6521;50.498;8.474;2023-04-03T07:18:07;4.50;;;2.63;;
12906;SDS011;6521;50.498;8.474;2023-04-03T07:20:38;3.27;;;2.27;;
12906;SDS011;6521;50.498;8.474;2023-04-03T07:23:09;5.47;;;2.03;;
12906;SDS011;6521;50.498;8.474;2023-04-03T07:25:44;6.37;;;2.23;;
12906;SDS011;6521;50.498;8.474;2023-04-03T07:28:17;6.50;;;3.00;;
12906;SDS011;6521;50.498;8.474;2023-04-03T07:30:50;3.10;;;2.20;;
12906;SDS011;6521;50.498;8.474;2023-04-03T07:33:22;7.60;;;2.77;;
12906;SDS011;6521;50.498;8.474;2023-04-03T07:35:54;4.40;;;2.43;;
12906;SDS011;6521;50.498;8.474;2023-04-03T07:38:25;6.40;;;2.67;;
12906;SDS011;6521;50.498;8.474;2023-04-03T07:40:56;6.33;;;2.80;;
12906;SDS011;6521;50.498;8.474;2023-04-03T07:43:26;5.23;;;2.53;;
12906;SDS011;6521;50.498;8.474;2023-04-03T07:45:58;6.37;;;2.50;;
12906;SDS011;6521;50.498;8.474;2023-04-03T07:48:29;11.73;;;2.43;;
12906;SDS011;6521;50.498;8.474;2023-04-03T07:51:00;6.37;;;2.70;;
12906;SDS011;6521;50.498;8.474;2023-04-03T07:53:32;6.07;;;2.30;;
12906;SDS011;6521;50.498;8.474;2023-04-03T07:56:03;5.90;;;2.17;;
12906;SDS011;6521;50.498;8.474;2023-04-03T07:58:34;8.43;;;2.83;;
12906;SDS011;6521;50.498;8.474;2023-04-03T08:01:05;5.07;;;2.80;;
12906;SDS011;6521;50.498;8.474;2023-04-03T08:03:36;6.80;;;2.13;;
12906;SDS011;6521;50.498;8.474;2023-04-03T08:06:08;14.87;;;2.57;;
12906;SDS011;6521;50.498;8.474;2023-04-03T08:08:39;10.23;;;2.37;;
12906;SDS011;6521;50.498;8.474;2023-04-03T08:11:11;7.90;;;2.10;;
12906;SDS011;6521;50.498;8.474;2023-04-03T08:13:42;7.37;;;2.70;;
12906;SDS011;6521;50.498;8.474;2023-04-03T08:16:17;4.73;;;2.20;;
12906;SDS011;6521;50.498;8.474;2023-04-03T08:18:50;5.87;;;2.63;;
12906;SDS011;6521;50.498;8.474;2023-04-03T08:21:21;5.87;;;2.90;;
12906;SDS011;6521;50.498;8.474;2023-04-03T08:23:52;5.67;;;2.20;;
12906;SDS011;6521;50.498;8.474;2023-04-03T08:26:22;6.60;;;2.40;;
12906;SDS011;6521;50.498;8.474;2023-04-03T08:28:54;5.50;;;2.20;;
12906;SDS011;6521;50.498;8.474;2023-04-03T08:31:24;4.23;;;2.73;;
12906;SDS011;6521;50.498;8.474;2023-04-03T08:33:56;8.90;;;2.50;;
12906;SDS011;6521;50.498;8.474;2023-04-03T08:36:28;5.33;;;2.20;;
12906;SDS011;6521;50.498;8.474;2023-04-03T08:39:02;4.73;;;2.17;;
12906;SDS011;6521;50.498;8.474;2023-04-03T08:41:40;7.57;;;2.47;;
12906;SDS011;6521;50.498;8.474;2023-04-03T08:47:18;4.33;;;2.60;;
12906;SDS011;6521;50.498;8.474;2023-04-03T08:49:51;6.47;;;2.50;;
12906;SDS011;6521;50.498;8.474;2023-04-03T08:52:38;4.60;;;2.10;;
12906;SDS011;6521;50.498;8.474;2023-04-03T08:55:19;5.10;;;2.10;;
12906;SDS011;6521;50.498;8.474;2023-04-03T08:58:03;6.20;;;2.37;;
12906;SDS011;6521;50.498;8.474;2023-04-03T09:03:48;10.00;;;2.80;;
12906;SDS011;6521;50.498;8.474;2023-04-03T09:06:20;3.73;;;2.20;;
12906;SDS011;6521;50.498;8.474;2023-04-03T09:11:53;6.70;;;2.33;;
12906;SDS011;6521;50.498;8.474;2023-04-03T09:14:46;3.97;;;2.17;;
12906;SDS011;6521;50.498;8.474;2023-04-03T09:17:31;3.87;;;1.93;;
12906;SDS011;6521;50.498;8.474;2023-04-03T09:22:47;4.37;;;2.00;;
12906;SDS011;6521;50.498;8.474;2023-04-03T09:25:20;3.00;;;1.90;;
12906;SDS011;6521;50.498;8.474;2023-04-03T09:27:53;3.07;;;1.80;;
12906;SDS011;6521;50.498;8.474;2023-04-03T09:30:24;4.23;;;2.20;;
12906;SDS011;6521;50.498;8.474;2023-04-03T09:32:56;6.40;;;1.83;;
12906;SDS011;6521;50.498;8.474;2023-04-03T09:35:28;2.33;;;1.67;;
12906;SDS011;6521;50.498;8.474;2023-04-03T09:40:42;3.93;;;1.70;;
12906;SDS011;6521;50.498;8.474;2023-04-03T09:49:02;4.53;;;1.70;;
12906;SDS011;6521;50.498;8.474;2023-04-03T09:51:35;4.03;;;1.90;;
12906;SDS011;6521;50.498;8.474;2023-04-03T09:54:26;3.00;;;2.00;;
12906;SDS011;6521;50.498;8.474;2023-04-03T09:57:12;3.07;;;1.47;;
12906;SDS011;6521;50.498;8.474;2023-04-03T10:00:03;4.97;;;2.00;;
12906;SDS011;6521;50.498;8.474;2023-04-03T10:02:39;5.93;;;2.30;;
12906;SDS011;6521;50.498;8.474;2023-04-03T10:10:48;4.63;;;1.80;;
12906;SDS011;6521;50.498;8.474;2023-04-03T10:13:49;6.60;;;1.70;;
12906;SDS011;6521;50.498;8.474;2023-04-03T10:19:14;3.53;;;1.50;;
12906;SDS011;6521;50.498;8.474;2023-04-03T10:22:37;6.33;;;1.80;;
12906;SDS011;6521;50.498;8.474;2023-04-03T10:24:52;2.27;;;1.73;;
12906;SDS011;6521;50.498;8.474;2023-04-03T10:27:39;3.43;;;1.67;;
12906;SDS011;6521;50.498;8.474;2023-04-03T10:36:36;4.40;;;1.87;;
12906;SDS011;6521;50.498;8.474;2023-04-03T10:47:20;2.40;;;1.67;;
12906;SDS011;6521;50.498;8.474;2023-04-03T10:53:03;3.97;;;2.17;;
12906;SDS011;6521;50.498;8.474;2023-04-03T10:55:54;2.93;;;1.40;;
12906;SDS011;6521;50.498;8.474;2023-04-03T10:58:39;4.07;;;1.90;;
12906;SDS011;6521;50.498;8.474;2023-04-03T11:01:18;3.70;;;1.67;;
12906;SDS011;6521;50.498;8.474;2023-04-03T11:03:53;3.53;;;1.87;;
12906;SDS011;6521;50.498;8.474;2023-04-03T11:06:36;4.25;;;1.92;;
12906;SDS011;6521;50.498;8.474;2023-04-03T11:09:34;5.80;;;1.93;;
12906;SDS011;6521;50.498;8.474;2023-04-03T11:12:14;3.58;;;1.50;;
12906;SDS011;6521;50.498;8.474;2023-04-03T11:14:59;3.28;;;1.63;;
12906;SDS011;6521;50.498;8.474;2023-04-03T11:17:37;2.63;;;1.70;;
12906;SDS011;6521;50.498;8.474;2023-04-03T11:25:51;4.50;;;2.00;;
12906;SDS011;6521;50.498;8.474;2023-04-03T11:28:24;3.67;;;2.00;;
12906;SDS011;6521;50.498;8.474;2023-04-03T11:36:48;2.80;;;1.35;;
12906;SDS011;6521;50.498;8.474;2023-04-03T11:39:33;2.70;;;1.33;;
12906;SDS011;6521;50.498;8.474;2023-04-03T11:44:48;3.63;;;1.40;;
12906;SDS011;6521;50.498;8.474;2023-04-03T11:55:44;3.80;;;1.60;;
12906;SDS011;6521;50.498;8.474;2023-04-03T11:58:22;3.97;;;1.70;;
12906;SDS011;6521;50.498;8.474;2023-04-03T12:00:58;3.05;;;1.42;;
12906;SDS011;6521;50.498;8.474;2023-04-03T12:16:23;2.78;;;1.15;;
12906;SDS011;6521;50.498;8.474;2023-04-03T12:24:31;3.53;;;1.63;;
12906;SDS011;6521;50.498;8.474;2023-04-03T12:27:05;5.25;;;1.95;;
12906;SDS011;6521;50.498;8.474;2023-04-03T12:29:49;3.38;;;1.58;;
12906;SDS011;6521;50.498;8.474;2023-04-03T12:35:14;2.97;;;1.23;;
12906;SDS011;6521;50.498;8.474;2023-04-03T12:37:51;2.55;;;1.05;;
12906;SDS011;6521;50.498;8.474;2023-04-03T12:46:38;2.10;;;1.20;;
12906;SDS011;6521;50.498;8.474;2023-04-03T12:49:46;2.75;;;1.40;;
12906;SDS011;6521;50.498;8.474;2023-04-03T12:52:19;2.47;;;1.40;;
12906;SDS011;6521;50.498;8.474;2023-04-03T12:54:55;3.60;;;1.40;;
12906;SDS011;6521;50.498;8.474;2023-04-03T12:57:27;2.22;;;1.77;;
12906;SDS011;6521;50.498;8.474;2023-04-03T12:59:58;4.07;;;1.35;;
12906;SDS011;6521;50.498;8.474;2023-04-03T13:02:31;2.85;;;1.23;;
12906;SDS011;6521;50.498;8.474;2023-04-03T13:05:05;5.47;;;1.70;;
12906;SDS011;6521;50.498;8.474;2023-04-03T13:07:38;4.85;;;1.40;;
12906;SDS011;6521;50.498;8.474;2023-04-03T13:10:15;1.55;;;1.23;;
12906;SDS011;6521;50.498;8.474;2023-04-03T13:12:48;3.20;;;1.33;;
12906;SDS011;6521;50.498;8.474;2023-04-03T13:15:25;1.90;;;1.25;;
12906;SDS011;6521;50.498;8.474;2023-04-03T13:17:58;2.53;;;1.15;;
12906;SDS011;6521;50.498;8.474;2023-04-03T13:20:30;4.10;;;1.43;;
12906;SDS011;6521;50.498;8.474;2023-04-03T13:23:07;3.10;;;1.10;;
12906;SDS011;6521;50.498;8.474;2023-04-03T13:25:42;3.70;;;1.37;;
12906;SDS011;6521;50.498;8.474;2023-04-03T13:28:16;2.10;;;1.33;;
12906;SDS011;6521;50.498;8.474;2023-04-03T13:36:42;3.07;;;1.70;;
12906;SDS011;6521;50.498;8.474;2023-04-03T13:41:52;4.82;;;1.63;;
12906;SDS011;6521;50.498;8.474;2023-04-03T13:44:32;2.15;;;1.48;;
12906;SDS011;6521;50.498;8.474;2023-04-03T13:49:43;3.15;;;1.60;;
12906;SDS011;6521;50.498;8.474;2023-04-03T13:52:34;2.15;;;1.20;;
12906;SDS011;6521;50.498;8.474;2023-04-03T13:55:22;3.60;;;1.37;;
12906;SDS011;6521;50.498;8.474;2023-04-03T13:57:58;3.10;;;1.30;;
12906;SDS011;6521;50.498;8.474;2023-04-03T14:00:38;1.25;;;0.90;;
12906;SDS011;6521;50.498;8.474;2023-04-03T14:04:25;3.47;;;1.60;;
12906;SDS011;6521;50.498;8.474;2023-04-03T14:06:24;1.77;;;1.20;;
12906;SDS011;6521;50.498;8.474;2023-04-03T14:08:54;2.93;;;1.10;;
12906;SDS011;6521;50.498;8.474;2023-04-03T14:11:26;2.43;;;1.50;;
12906;SDS011;6521;50.498;8.474;2023-04-03T14:14:02;2.73;;;1.47;;
12906;SDS011;6521;50.498;8.474;2023-04-03T14:16:37;4.10;;;1.30;;
12906;SDS011;6521;50.498;8.474;2023-04-03T14:19:30;3.67;;;1.37;;
12906;SDS011;6521;50.498;8.474;2023-04-03T14:22:22;3.87;;;1.40;;
12906;SDS011;6521;50.498;8.474;2023-04-03T14:25:04;5.50;;;1.30;;
12906;SDS011;6521;50.498;8.474;2023-04-03T14:27:36;1.80;;;1.00;;
12906;SDS011;6521;50.498;8.474;2023-04-03T14:30:20;3.37;;;1.23;;
12906;SDS011;6521;50.498;8.474;2023-04-03T14:32:53;5.97;;;1.40;;
12906;SDS011;6521;50.498;8.474;2023-04-03T14:35:25;4.40;;;1.60;;
12906;SDS011;6521;50.498;8.474;2023-04-03T14:37:56;4.60;;;1.30;;
12906;SDS011;6521;50.498;8.474;2023-04-03T14:40:27;3.90;;;1.30;;
12906;SDS011;6521;50.498;8.474;2023-04-03T14:42:58;1.30;;;1.20;;
12906;SDS011;6521;50.498;8.474;2023-04-03T14:45:29;1.77;;;1.17;;
12906;SDS011;6521;50.498;8.474;2023-04-03T14:48:00;2.47;;;1.50;;
12906;SDS011;6521;50.498;8.474;2023-04-03T14:50:30;2.73;;;1.20;;
12906;SDS011;6521;50.498;8.474;2023-04-03T14:53:01;2.37;;;1.43;;
12906;SDS011;6521;50.498;8.474;2023-04-03T14:55:32;5.10;;;1.70;;
12906;SDS011;6521;50.498;8.474;2023-04-03T14:58:03;2.47;;;1.30;;
12906;SDS011;6521;50.498;8.474;2023-04-03T15:00:34;1.93;;;1.10;;
12906;SDS011;6521;50.498;8.474;2023-04-03T15:03:05;1.87;;;1.17;;
12906;SDS011;6521;50.498;8.474;2023-04-03T15:05:35;2.30;;;1.20;;
12906;SDS011;6521;50.498;8.474;2023-04-03T15:08:11;2.37;;;1.40;;
12906;SDS011;6521;50.498;8.474;2023-04-03T15:10:50;5.07;;;1.50;;
12906;SDS011;6521;50.498;8.474;2023-04-03T15:13:23;3.27;;;1.27;;
12906;SDS011;6521;50.498;8.474;2023-04-03T15:15:54;4.17;;;1.30;;
12906;SDS011;6521;50.498;8.474;2023-04-03T15:18:26;3.57;;;1.23;;
12906;SDS011;6521;50.498;8.474;2023-04-03T15:20:58;2.50;;;1.20;;
12906;SDS011;6521;50.498;8.474;2023-04-03T15:23:28;4.10;;;1.30;;
12906;SDS011;6521;50.498;8.474;2023-04-03T15:26:00;1.63;;;1.10;;
12906;SDS011;6521;50.498;8.474;2023-04-03T15:28:33;3.40;;;1.20;;
12906;SDS011;6521;50.498;8.474;2023-04-03T15:31:06;4.37;;;1.43;;
12906;SDS011;6521;50.498;8.474;2023-04-03T15:33:37;4.87;;;1.40;;
12906;SDS011;6521;50.498;8.474;2023-04-03T15:36:08;3.63;;;1.23;;
12906;SDS011;6521;50.498;8.474;2023-04-03T15:38:39;2.23;;;1.30;;
12906;SDS011;6521;50.498;8.474;2023-04-03T15:41:10;3.00;;;1.50;;
12906;SDS011;6521;50.498;8.474;2023-04-03T15:43:41;4.13;;;1.40;;
12906;SDS011;6521;50.498;8.474;2023-04-03T15:46:11;3.37;;;1.20;;
12906;SDS011;6521;50.498;8.474;2023-04-03T15:48:43;4.73;;;1.60;;
12906;SDS011;6521;50.498;8.474;2023-04-03T15:51:15;1.77;;;1.60;;
12906;SDS011;6521;50.498;8.474;2023-04-03T15:53:45;1.60;;;1.43;;
12906;SDS011;6521;50.498;8.474;2023-04-03T15:56:16;3.23;;;1.43;;
12906;SDS011;6521;50.498;8.474;2023-04-03T15:58:47;3.97;;;1.23;;
12906;SDS011;6521;50.498;8.474;2023-04-03T16:01:18;5.23;;;1.53;;
12906;SDS011;6521;50.498;8.474;2023-04-03T16:03:49;2.23;;;1.37;;
12906;SDS011;6521;50.498;8.474;2023-04-03T16:06:20;2.03;;;1.20;;
12906;SDS011;6521;50.498;8.474;2023-04-03T16:08:51;3.03;;;1.03;;
12906;SDS011;6521;50.498;8.474;2023-04-03T16:11:22;10.87;;;1.60;;
12906;SDS011;6521;50.498;8.474;2023-04-03T16:13:53;2.13;;;1.20;;
12906;SDS011;6521;50.498;8.474;2023-04-03T16:16:24;2.47;;;1.60;;
12906;SDS011;6521;50.498;8.474;2023-04-03T16:18:57;2.77;;;1.23;;
12906;SDS011;6521;50.498;8.474;2023-04-03T16:21:28;5.50;;;1.30;;
12906;SDS011;6521;50.498;8.474;2023-04-03T16:23:59;2.03;;;1.37;;
12906;SDS011;6521;50.498;8.474;2023-04-03T16:26:31;1.97;;;1.10;;
12906;SDS011;6521;50.498;8.474;2023-04-03T16:29:02;2.80;;;1.50;;
12906;SDS011;6521;50.498;8.474;2023-04-03T16:31:32;3.73;;;1.30;;
12906;SDS011;6521;50.498;8.474;2023-04-03T16:34:03;8.50;;;1.70;;
12906;SDS011;6521;50.498;8.474;2023-04-03T16:36:34;10.23;;;1.67;;
12906;SDS011;6521;50.498;8.474;2023-04-03T16:39:05;3.50;;;1.77;;
12906;SDS011;6521;50.498;8.474;2023-04-03T16:41:36;3.63;;;1.40;;
12906;SDS011;6521;50.498;8.474;2023-04-03T16:44:07;2.63;;;1.70;;
12906;SDS011;6521;50.498;8.474;2023-04-03T16:46:38;2.77;;;1.40;;
12906;SDS011;6521;50.498;8.474;2023-04-03T16:49:08;2.13;;;1.67;;
12906;SDS011;6521;50.498;8.474;2023-04-03T16:51:39;3.30;;;1.47;;
12906;SDS011;6521;50.498;8.474;2023-04-03T16:54:11;4.97;;;1.50;;
12906;SDS011;6521;50.498;8.474;2023-04-03T16:56:43;2.77;;;1.40;;
12906;SDS011;6521;50.498;8.474;2023-04-03T16:59:14;3.07;;;1.50;;
12906;SDS011;6521;50.498;8.474;2023-04-03T17:01:45;3.63;;;1.70;;
12906;SDS011;6521;50.498;8.474;2023-04-03T17:04:16;1.87;;;1.20;;
12906;SDS011;6521;50.498;8.474;2023-04-03T17:06:47;3.20;;;1.70;;
12906;SDS011;6521;50.498;8.474;2023-04-03T17:09:17;3.87;;;1.60;;
12906;SDS011;6521;50.498;8.474;2023-04-03T17:11:48;3.90;;;1.70;;
12906;SDS011;6521;50.498;8.474;2023-04-03T17:14:19;2.53;;;1.60;;
12906;SDS011;6521;50.498;8.474;2023-04-03T17:16:50;3.40;;;1.67;;
12906;SDS011;6521;50.498;8.474;2023-04-03T17:19:21;2.73;;;1.37;;
12906;SDS011;6521;50.498;8.474;2023-04-03T17:21:53;5.57;;;1.90;;
12906;SDS011;6521;50.498;8.474;2023-04-03T17:24:24;3.17;;;1.57;;
12906;SDS011;6521;50.498;8.474;2023-04-03T17:26:55;6.73;;;1.60;;
12906;SDS011;6521;50.498;8.474;2023-04-03T17:29:25;1.23;;;1.10;;
12906;SDS011;6521;50.498;8.474;2023-04-03T17:31:56;9.00;;;1.67;;
12906;SDS011;6521;50.498;8.474;2023-04-03T17:34:27;7.03;;;1.70;;
12906;SDS011;6521;50.498;8.474;2023-04-03T17:36:58;3.47;;;1.70;;